Time;durP1;ratioP1;P1;durP2;ratioP2;P2;SDS_P1;SDS_P2;PMS_P1;PMS_P2;Temp;Humidity;BMP_temperature;BMP_pressure;BME280_temperature;BME280_humidity;BME280_pressure;Samples;Min_cycle;Max_cycle;Signal;HPM_P1;HPM_P2
2021/12/24 00:00:34;;;;;;;1.53;0.93;;;;;;;8.83;76.91;94815.09;4408988;32;20275;-65
2021/12/24 00:02:59;;;;;;;1.23;1.00;;;;;;;8.73;77.21;94820.56;4416596;32;20330;-65
2021/12/24 00:05:25;;;;;;;1.63;1.07;;;;;;;8.67;77.83;94816.47;4408710;32;20298;-65
2021/12/24 00:07:50;;;;;;;1.17;1.07;;;;;;;8.70;77.80;94815.91;4406039;32;20225;-65
2021/12/24 00:10:16;;;;;;;2.80;1.00;;;;;;;8.68;78.10;94812.75;4408319;32;20412;-65
2021/12/24 00:12:47;;;;;;;1.30;1.20;;;;;;;8.61;78.50;94799.91;4418505;32;20190;-66
2021/12/24 00:15:38;;;;;;;1.03;1.03;;;;;;;8.66;78.64;94803.56;4415860;32;20206;-65
2021/12/24 00:18:10;;;;;;;1.53;1.10;;;;;;;8.75;78.19;94797.28;4405690;32;20314;-65
2021/12/24 00:21:48;;;;;;;1.10;1.00;;;;;;;8.55;78.93;94792.38;4409334;32;20278;-65
2021/12/24 00:37:13;;;;;;;1.20;1.10;;;;;;;8.65;79.61;94776.31;4410771;32;20351;-65
2021/12/24 00:39:50;;;;;;;3.27;1.27;;;;;;;8.68;79.32;94775.75;4409165;32;20390;-65
2021/12/24 00:42:18;;;;;;;4.00;1.10;;;;;;;8.57;79.85;94767.22;4406833;32;20199;-65
2021/12/24 00:44:44;;;;;;;0.97;0.97;;;;;;;8.51;80.14;94770.28;4415686;32;20313;-65
2021/12/24 00:47:09;;;;;;;1.17;0.90;;;;;;;8.36;80.95;94775.81;4411004;32;20264;-65
2021/12/24 00:49:34;;;;;;;1.80;1.43;;;;;;;8.38;81.06;94765.75;4413740;32;20194;-65
2021/12/24 00:52:18;;;;;;;0.90;0.80;;;;;;;8.27;81.37;94757.97;4412778;32;20256;-65
2021/12/24 00:57:27;;;;;;;1.00;0.83;;;;;;;8.46;80.97;94751.84;4408620;32;20286;-66
2021/12/24 00:59:53;;;;;;;1.57;1.10;;;;;;;8.55;80.78;94750.84;4417870;32;20355;-65
2021/12/24 01:02:18;;;;;;;1.23;1.10;;;;;;;8.57;80.56;94753.22;4411995;32;20228;-65
2021/12/24 01:04:43;;;;;;;1.30;1.20;;;;;;;8.46;81.06;94759.78;4405804;32;20233;-65
2021/12/24 01:07:09;;;;;;;2.40;1.20;;;;;;;8.53;81.13;94762.81;4409819;32;20222;-65
2021/12/24 01:09:35;;;;;;;1.93;0.93;;;;;;;8.44;81.48;94764.56;4411662;32;20222;-65
2021/12/24 01:12:00;;;;;;;1.00;0.90;;;;;;;8.51;81.04;94754.41;4412948;32;20287;-66
2021/12/24 01:14:26;;;;;;;2.60;1.00;;;;;;;8.51;81.28;94755.19;4415027;32;20180;-65
2021/12/24 01:17:33;;;;;;;1.60;0.90;;;;;;;8.56;80.84;94752.44;4407697;32;20211;-65
2021/12/24 01:19:46;;;;;;;1.40;1.30;;;;;;;8.39;81.81;94756.72;4412613;32;20197;-65
2021/12/24 01:25:02;;;;;;;0.90;0.90;;;;;;;8.55;81.03;94734.22;4405819;32;20272;-65
2021/12/24 01:30:06;;;;;;;1.00;1.00;;;;;;;8.65;80.85;94727.97;4415856;32;20329;-65
2021/12/24 01:38:24;;;;;;;1.00;0.90;;;;;;;8.92;79.84;94744.59;4412851;32;20324;-65
2021/12/24 01:43:22;;;;;;;1.10;0.90;;;;;;;8.90;80.39;94730.09;4405570;32;20359;-65
2021/12/24 01:45:50;;;;;;;1.07;1.00;;;;;;;8.83;80.17;94730.47;4408488;32;20414;-65
2021/12/24 01:48:15;;;;;;;0.73;0.73;;;;;;;8.87;80.26;94738.59;4418247;32;20332;-65
2021/12/24 01:50:42;;;;;;;0.97;0.77;;;;;;;8.89;80.14;94726.66;4405562;32;20271;-65
2021/12/24 01:53:08;;;;;;;1.03;1.03;;;;;;;8.94;80.21;94725.75;4416472;32;20192;-65
2021/12/24 01:55:35;;;;;;;1.10;1.00;;;;;;;8.84;80.21;94732.03;4419024;32;20295;-65
2021/12/24 01:58:01;;;;;;;0.90;0.90;;;;;;;8.92;80.13;94734.00;4404439;32;20202;-65
2021/12/24 02:00:30;;;;;;;0.80;0.80;;;;;;;8.94;79.96;94728.38;4418559;32;20271;-66
2021/12/24 02:02:56;;;;;;;0.97;0.90;;;;;;;8.95;80.05;94722.03;4412896;32;20192;-65
2021/12/24 02:05:23;;;;;;;0.93;0.70;;;;;;;8.92;80.22;94728.72;4417826;32;20267;-65
2021/12/24 02:07:49;;;;;;;1.30;0.73;;;;;;;8.94;79.94;94723.09;4407937;32;20297;-65
2021/12/24 02:10:17;;;;;;;0.93;0.80;;;;;;;8.86;80.22;94716.66;4414861;32;20276;-66
2021/12/24 02:12:42;;;;;;;1.10;1.10;;;;;;;8.95;80.11;94717.50;4402904;32;20240;-65
2021/12/24 02:15:17;;;;;;;1.10;1.03;;;;;;;8.96;79.90;94705.06;4404150;32;20291;-66
2021/12/24 02:28:52;;;;;;;1.57;0.90;;;;;;;9.00;79.72;94682.25;4408370;32;20362;-65
2021/12/24 02:31:21;;;;;;;1.17;1.07;;;;;;;9.04;79.65;94685.06;4408124;32;20339;-65
2021/12/24 02:33:47;;;;;;;0.90;0.90;;;;;;;8.95;80.11;94679.69;4420278;32;20183;-65
2021/12/24 02:36:14;;;;;;;1.67;0.90;;;;;;;9.05;79.66;94673.41;4408903;32;20367;-66
2021/12/24 02:38:40;;;;;;;1.00;1.00;;;;;;;9.10;79.57;94660.84;4412454;32;20271;-65
2021/12/24 02:41:07;;;;;;;1.00;1.00;;;;;;;9.12;79.40;94655.28;4420415;32;20278;-65
2021/12/24 02:43:33;;;;;;;0.93;0.80;;;;;;;9.21;79.29;94656.09;4422327;32;20219;-65
2021/12/24 02:46:07;;;;;;;0.80;0.80;;;;;;;9.31;78.41;94653.22;4420793;32;20306;-66
2021/12/24 02:56:27;;;;;;;1.07;0.90;;;;;;;9.26;78.45;94632.94;4411412;32;20362;-65
2021/12/24 02:58:53;;;;;;;1.07;0.77;;;;;;;9.39;78.12;94636.59;4422935;32;20342;-65
2021/12/24 03:01:24;;;;;;;1.60;1.50;;;;;;;9.40;77.79;94627.56;4422150;32;20283;-65
2021/12/24 03:03:51;;;;;;;1.30;1.03;;;;;;;9.49;77.47;94623.12;4414410;32;20250;-65
2021/12/24 03:06:21;;;;;;;0.70;0.70;;;;;;;9.50;77.51;94623.91;4408262;32;20291;-65
2021/12/24 03:08:46;;;;;;;1.03;0.80;;;;;;;9.49;77.67;94620.47;4408262;32;20268;-65
2021/12/24 03:11:12;;;;;;;2.50;1.10;;;;;;;9.55;77.36;94597.31;4413475;32;20301;-65
2021/12/24 03:13:39;;;;;;;1.40;1.00;;;;;;;9.60;76.77;94608.53;4406936;32;20192;-65
2021/12/24 03:16:05;;;;;;;0.77;0.77;;;;;;;9.64;76.75;94590.94;4412307;32;20175;-65
2021/12/24 03:18:33;;;;;;;1.23;0.80;;;;;;;9.69;76.17;94603.28;4410163;32;20345;-65
2021/12/24 03:23:46;;;;;;;4.97;0.80;;;;;;;9.72;76.07;94596.59;4420403;32;20271;-65
2021/12/24 03:26:15;;;;;;;0.90;0.80;;;;;;;9.74;75.81;94581.19;4408872;32;20279;-66
2021/12/24 03:28:42;;;;;;;1.40;0.80;;;;;;;9.71;75.85;94593.16;4406584;32;20271;-66
2021/12/24 03:31:09;;;;;;;1.30;0.80;;;;;;;9.73;75.36;94596.31;4407031;32;20271;-66
2021/12/24 03:33:35;;;;;;;1.57;1.10;;;;;;;9.72;75.40;94593.94;4409395;32;20295;-65
2021/12/24 03:36:05;;;;;;;1.80;0.90;;;;;;;9.53;76.21;94602.91;4409304;32;20286;-65
2021/12/24 03:38:32;;;;;;;0.70;0.70;;;;;;;9.64;75.86;94592.81;4413544;32;20349;-66
2021/12/24 03:40:57;;;;;;;0.73;0.73;;;;;;;9.65;75.85;94597.03;4417654;32;20339;-65
2021/12/24 03:43:23;;;;;;;1.50;0.90;;;;;;;9.75;75.22;94596.00;4421010;32;20301;-65
2021/12/24 03:48:23;;;;;;;1.60;1.10;;;;;;;9.63;75.47;94591.25;4409371;32;20275;-66
2021/12/24 03:55:57;;;;;;;0.87;0.80;;;;;;;9.66;76.13;94585.34;4410276;32;20210;-66
2021/12/24 03:58:23;;;;;;;1.00;1.00;;;;;;;9.48;76.13;94595.09;4420479;32;20275;-66
2021/12/24 04:00:48;;;;;;;0.70;0.70;;;;;;;9.50;75.99;94589.50;4417497;32;20192;-66
2021/12/24 04:03:14;;;;;;;1.40;0.83;;;;;;;9.49;75.91;94591.34;4420343;32;20218;-66
2021/12/24 04:05:40;;;;;;;1.40;0.93;;;;;;;9.38;76.15;94582.09;4421079;32;20252;-66
2021/12/24 04:08:05;;;;;;;0.70;0.70;;;;;;;9.41;76.17;94588.66;4409835;32;20185;-66
2021/12/24 04:10:40;;;;;;;1.00;0.90;;;;;;;9.39;76.16;94588.16;4407586;32;20184;-66
2021/12/24 04:13:10;;;;;;;1.03;0.90;;;;;;;9.32;76.31;94582.53;4409766;32;20180;-66
2021/12/24 04:15:36;;;;;;;1.90;1.00;;;;;;;9.31;76.20;94581.75;4411499;32;20287;-66
2021/12/24 04:18:12;;;;;;;0.80;0.80;;;;;;;9.24;76.59;94579.53;4406819;32;20284;-66
2021/12/24 04:26:05;;;;;;;0.97;0.73;;;;;;;9.13;76.92;94570.31;4411044;32;20294;-66
2021/12/24 04:28:31;;;;;;;0.80;0.60;;;;;;;9.07;76.92;94566.22;4418937;32;20280;-66
2021/12/24 04:30:56;;;;;;;1.30;0.70;;;;;;;8.99;77.15;94568.78;4413433;32;20232;-66
2021/12/24 04:33:36;;;;;;;1.33;0.70;;;;;;;8.97;77.17;94569.09;4420192;32;20220;-66
2021/12/24 04:36:39;;;;;;;0.80;0.77;;;;;;;9.00;77.00;94579.06;4418122;32;20221;-66
2021/12/24 04:39:28;;;;;;;0.83;0.83;;;;;;;8.98;77.03;94575.16;4420637;32;20345;-66
2021/12/24 05:01:22;;;;;;;1.97;0.90;;;;;;;8.77;76.67;94572.22;4383499;32;20294;-66
2021/12/24 05:03:48;;;;;;;1.00;0.70;;;;;;;8.78;76.50;94574.56;4414476;32;20351;-65
2021/12/24 05:06:30;;;;;;;2.10;0.60;;;;;;;8.76;76.03;94574.06;4412398;32;20285;-66
2021/12/24 05:08:59;;;;;;;1.10;0.83;;;;;;;8.65;75.91;94580.69;4418282;32;20179;-65
2021/12/24 05:11:25;;;;;;;0.70;0.70;;;;;;;8.69;75.37;94579.00;4414414;32;20275;-65
2021/12/24 05:13:53;;;;;;;0.80;0.80;;;;;;;8.68;75.18;94576.66;4418138;32;20275;-65
2021/12/24 05:19:05;;;;;;;1.70;0.67;;;;;;;8.71;73.75;94573.44;4406352;32;20267;-66
2021/12/24 05:21:34;;;;;;;1.37;0.70;;;;;;;8.75;73.46;94566.44;4407145;32;20324;-66
2021/12/24 05:24:20;;;;;;;1.47;0.70;;;;;;;8.68;72.87;94569.50;4405491;32;20263;-66
2021/12/24 05:26:53;;;;;;;0.57;0.57;;;;;;;8.71;73.18;94568.13;4406472;32;20279;-65
2021/12/24 05:29:18;;;;;;;0.60;0.60;;;;;;;8.72;72.80;94578.41;4419850;32;20421;-65
2021/12/24 05:31:45;;;;;;;1.53;0.93;;;;;;;8.66;73.10;94571.69;4407577;32;20291;-66
2021/12/24 05:34:11;;;;;;;0.73;0.70;;;;;;;8.65;72.29;94572.75;4419903;32;20224;-66
2021/12/24 05:36:37;;;;;;;1.47;0.70;;;;;;;8.70;71.72;94572.66;4419755;32;20289;-66
2021/12/24 05:39:03;;;;;;;0.67;0.50;;;;;;;8.71;71.87;94568.91;4407709;32;20279;-66
2021/12/24 05:41:28;;;;;;;2.07;0.57;;;;;;;8.66;71.57;94570.91;4404355;32;20211;-66
2021/12/24 05:43:54;;;;;;;0.70;0.70;;;;;;;8.62;71.90;94565.41;4414652;32;20351;-66
2021/12/24 05:46:19;;;;;;;1.27;1.17;;;;;;;8.65;71.21;94578.03;4405625;32;20251;-66
2021/12/24 05:48:45;;;;;;;0.93;0.70;;;;;;;8.70;70.70;94574.50;4405562;32;20188;-66
2021/12/24 05:51:10;;;;;;;0.73;0.60;;;;;;;8.66;70.61;94571.69;4413278;32;20188;-66
2021/12/24 05:53:37;;;;;;;0.50;0.50;;;;;;;8.60;70.55;94572.84;4410491;32;20206;-66
2021/12/24 05:56:05;;;;;;;0.83;0.57;;;;;;;8.66;70.38;94570.91;4404920;32;20183;-66
2021/12/24 05:58:31;;;;;;;0.50;0.50;;;;;;;8.66;69.07;94582.25;4412785;32;20316;-66
2021/12/24 06:00:56;;;;;;;1.30;0.67;;;;;;;8.66;69.06;94571.69;4407831;32;20292;-66
2021/12/24 06:03:23;;;;;;;0.40;0.40;;;;;;;8.69;68.90;94575.59;4410341;32;20219;-66
2021/12/24 06:05:48;;;;;;;0.53;0.50;;;;;;;8.74;69.10;94573.59;4405632;32;20331;-66
2021/12/24 06:08:14;;;;;;;1.03;0.60;;;;;;;8.67;68.00;94585.69;4419092;32;20287;-66
2021/12/24 06:10:41;;;;;;;0.70;0.70;;;;;;;8.68;67.89;94580.09;4409742;32;20236;-66
2021/12/24 06:13:06;;;;;;;0.83;0.60;;;;;;;8.62;68.24;94583.91;4407640;32;20234;-66
2021/12/24 06:15:41;;;;;;;1.80;0.37;;;;;;;8.79;67.53;94577.97;4412431;32;20304;-66
2021/12/24 06:18:21;;;;;;;1.37;0.40;;;;;;;8.75;67.40;94583.09;4408166;32;20187;-65
2021/12/24 06:20:46;;;;;;;2.27;0.70;;;;;;;8.76;66.98;94587.28;4413348;32;20275;-65
2021/12/24 06:23:12;;;;;;;1.60;0.80;;;;;;;8.74;67.41;94589.44;4410542;32;20286;-65
2021/12/24 06:25:37;;;;;;;0.53;0.53;;;;;;;8.64;67.36;94584.41;4408289;32;20183;-66
2021/12/24 06:28:03;;;;;;;0.87;0.63;;;;;;;8.62;68.36;94586.56;4413725;32;20214;-66
2021/12/24 06:30:29;;;;;;;0.80;0.80;;;;;;;8.70;67.88;94593.78;4416820;32;20202;-65
2021/12/24 06:33:00;;;;;;;0.50;0.50;;;;;;;8.78;67.41;94587.00;4417741;32;20211;-65
2021/12/24 06:35:26;;;;;;;0.70;0.70;;;;;;;8.81;67.35;94589.03;4409051;32;20188;-65
2021/12/24 06:37:54;;;;;;;1.83;1.03;;;;;;;8.65;68.01;94590.47;4406430;32;20270;-66
2021/12/24 06:40:19;;;;;;;0.70;0.70;;;;;;;8.69;68.27;94584.28;4408860;32;20347;-65
2021/12/24 06:42:44;;;;;;;0.60;0.60;;;;;;;8.69;68.33;94589.59;4416974;32;20301;-65
2021/12/24 06:45:10;;;;;;;0.80;0.80;;;;;;;8.85;68.02;94587.38;4418867;32;20248;-65
2021/12/24 06:47:36;;;;;;;1.07;0.70;;;;;;;8.79;68.64;94588.56;4411852;32;20188;-66
2021/12/24 06:50:02;;;;;;;1.00;0.60;;;;;;;8.79;68.77;94586.69;4403402;32;20184;-65
2021/12/24 06:52:28;;;;;;;0.80;0.80;;;;;;;8.69;69.42;94584.28;4419739;32;20222;-66
2021/12/24 06:54:54;;;;;;;0.70;0.70;;;;;;;8.73;69.47;94585.25;4407703;32;20280;-66
2021/12/24 06:57:20;;;;;;;0.70;0.70;;;;;;;8.81;69.39;94589.81;4414966;32;20236;-66
2021/12/24 06:59:47;;;;;;;0.77;0.77;;;;;;;8.72;70.02;94593.50;4414638;32;20290;-65
2021/12/24 07:02:12;;;;;;;0.70;0.70;;;;;;;8.76;69.78;94595.22;4420503;32;20180;-65
2021/12/24 07:04:37;;;;;;;1.47;0.70;;;;;;;8.67;70.39;94599.69;4415413;32;20296;-66
2021/12/24 07:07:03;;;;;;;0.77;0.77;;;;;;;8.75;70.10;94606.09;4404460;32;20240;-66
2021/12/24 07:09:28;;;;;;;1.10;0.77;;;;;;;8.76;70.32;94595.22;4414969;32;20192;-66
2021/12/24 07:11:54;;;;;;;0.90;0.90;;;;;;;8.79;70.47;94597.28;4419412;32;20184;-65
2021/12/24 07:14:19;;;;;;;1.70;0.63;;;;;;;8.81;70.63;94597.75;4407234;32;20195;-66
2021/12/24 07:16:44;;;;;;;1.07;0.97;;;;;;;8.87;70.90;94599.22;4410393;32;20233;-65
2021/12/24 07:19:10;;;;;;;1.40;0.70;;;;;;;8.83;70.69;94592.94;4419282;32;20196;-66
2021/12/24 07:21:35;;;;;;;1.00;0.60;;;;;;;8.75;70.64;94601.59;4408042;32;20199;-66
2021/12/24 07:24:06;;;;;;;0.70;0.70;;;;;;;8.79;70.67;94604.44;4406147;32;20233;-65
2021/12/24 07:26:31;;;;;;;1.07;0.97;;;;;;;8.72;71.10;94612.00;4420921;32;20187;-66
2021/12/24 07:28:57;;;;;;;4.27;1.13;;;;;;;8.71;71.57;94595.34;4415654;32;20286;-66
2021/12/24 07:31:22;;;;;;;1.27;0.93;;;;;;;8.77;71.39;94604.72;4409439;32;20188;-66
2021/12/24 07:33:47;;;;;;;0.70;0.70;;;;;;;8.79;71.45;94597.28;4416875;32;20291;-66
2021/12/24 07:36:13;;;;;;;0.70;0.70;;;;;;;8.80;71.66;94606.78;4413292;32;20185;-65
2021/12/24 07:38:39;;;;;;;0.63;0.63;;;;;;;8.86;71.55;94604.81;4416407;32;20206;-65
2021/12/24 07:41:04;;;;;;;1.27;0.90;;;;;;;8.72;72.17;94589.00;4407622;32;20189;-66
2021/12/24 07:43:30;;;;;;;0.97;0.97;;;;;;;8.75;72.01;94592.88;4412366;32;20226;-65
2021/12/24 07:45:56;;;;;;;0.83;0.83;;;;;;;8.68;72.53;94595.94;4421781;32;20210;-66
2021/12/24 07:48:28;;;;;;;2.33;1.00;;;;;;;8.72;72.91;94591.63;4421228;32;20192;-66
2021/12/24 07:53:20;;;;;;;0.80;0.80;;;;;;;8.89;72.22;94597.06;4418565;32;20290;-65
2021/12/24 07:55:45;;;;;;;1.43;1.10;;;;;;;8.78;72.59;94587.78;4418810;32;20347;-66
2021/12/24 07:58:13;;;;;;;1.30;0.90;;;;;;;8.79;72.88;94589.34;4411071;32;20236;-65
2021/12/24 08:00:39;;;;;;;0.80;0.80;;;;;;;8.81;72.98;94600.41;4419040;32;20195;-66
2021/12/24 08:03:05;;;;;;;1.87;0.90;;;;;;;8.92;73.17;94601.75;4413074;32;20295;-65
2021/12/24 08:05:35;;;;;;;0.77;0.77;;;;;;;8.94;73.02;94604.84;4404106;32;20218;-66
2021/12/24 08:08:01;;;;;;;2.70;0.90;;;;;;;8.88;73.91;94594.72;4413977;32;20321;-65
2021/12/24 08:10:27;;;;;;;1.00;1.00;;;;;;;8.86;75.12;94595.00;4407940;32;20306;-65
2021/12/24 08:12:53;;;;;;;1.47;1.37;;;;;;;8.82;76.07;94595.91;4410866;32;20310;-66
2021/12/24 08:15:19;;;;;;;0.87;0.87;;;;;;;8.82;76.22;94603.84;4412163;32;20312;-66
2021/12/24 08:17:45;;;;;;;0.90;0.90;;;;;;;8.91;76.51;94597.53;4413073;32;20196;-66
2021/12/24 08:20:14;;;;;;;0.67;0.67;;;;;;;8.91;77.20;94600.19;4416017;32;20219;-66
2021/12/24 08:22:40;;;;;;;1.03;0.87;;;;;;;8.83;78.11;94600.88;4409621;32;20328;-66
2021/12/24 08:25:08;;;;;;;0.90;0.90;;;;;;;8.77;78.18;94598.66;4403941;32;20276;-66
2021/12/24 08:27:35;;;;;;;1.27;0.83;;;;;;;8.78;79.74;94608.16;4409192;32;20203;-66
2021/12/24 08:30:01;;;;;;;1.00;0.90;;;;;;;8.74;79.31;94610.59;4407205;32;20350;-66
2021/12/24 08:32:26;;;;;;;0.80;0.80;;;;;;;8.73;79.87;94614.31;4412481;32;20292;-66
2021/12/24 08:34:53;;;;;;;0.80;0.80;;;;;;;8.68;80.41;94611.81;4405478;32;20287;-66
2021/12/24 08:37:19;;;;;;;0.90;0.90;;;;;;;8.63;80.92;94609.28;4404231;32;20343;-66
2021/12/24 08:39:44;;;;;;;1.83;0.90;;;;;;;8.65;80.10;94622.19;4403607;32;20345;-66
2021/12/24 08:42:09;;;;;;;0.83;0.73;;;;;;;8.63;80.35;94616.44;4413040;32;20214;-66
2021/12/24 08:44:36;;;;;;;0.90;0.90;;;;;;;8.62;80.52;94618.28;4413052;32;20191;-66
2021/12/24 08:47:03;;;;;;;1.03;0.93;;;;;;;8.61;79.98;94619.37;4412196;32;20210;-66
2021/12/24 08:49:29;;;;;;;1.47;0.80;;;;;;;8.61;79.49;94617.50;4406167;32;20272;-66
2021/12/24 08:51:55;;;;;;;0.90;0.90;;;;;;;8.61;79.97;94609.56;4408344;32;20291;-66
2021/12/24 08:54:21;;;;;;;2.30;1.20;;;;;;;8.76;79.44;94605.81;4407706;32;20292;-66
2021/12/24 08:56:48;;;;;;;1.00;1.00;;;;;;;8.72;79.61;94602.22;4415088;32;20293;-66
2021/12/24 08:59:14;;;;;;;1.03;1.00;;;;;;;8.70;79.88;94600.94;4407489;32;20276;-66
2021/12/24 09:01:42;;;;;;;3.67;0.97;;;;;;;8.77;79.51;94598.66;4416981;32;20327;-66
2021/12/24 09:04:09;;;;;;;0.63;0.63;;;;;;;8.68;80.19;94605.75;4413100;32;20188;-66
2021/12/24 09:06:35;;;;;;;0.80;0.80;;;;;;;8.72;80.30;94599.56;4407663;32;20271;-66
2021/12/24 09:09:00;;;;;;;1.17;0.97;;;;;;;8.71;80.60;94600.66;4413106;32;20306;-66
2021/12/24 09:11:26;;;;;;;1.93;0.80;;;;;;;8.71;80.74;94599.88;4407152;32;20216;-66
2021/12/24 09:13:51;;;;;;;1.53;0.90;;;;;;;8.66;81.00;94607.91;4408746;32;20227;-66
2021/12/24 09:16:17;;;;;;;1.10;1.10;;;;;;;8.53;82.32;94604.97;4420405;32;20192;-66
2021/12/24 09:18:43;;;;;;;2.80;0.83;;;;;;;8.64;81.68;94602.91;4420935;32;20198;-66
2021/12/24 09:21:15;;;;;;;1.00;1.00;;;;;;;8.76;80.51;94607.66;4420960;32;20183;-66
2021/12/24 09:23:47;;;;;;;1.43;1.33;;;;;;;8.72;80.72;94610.16;4407963;32;20312;-66
2021/12/24 09:26:12;;;;;;;1.30;1.20;;;;;;;8.78;80.36;94613.44;4405516;32;20280;-66
2021/12/24 09:28:38;;;;;;;1.57;0.77;;;;;;;8.79;80.67;94605.22;4406514;32;20314;-66
2021/12/24 09:31:06;;;;;;;0.97;0.97;;;;;;;8.71;81.42;94619.16;4412813;32;20191;-65
2021/12/24 09:33:32;;;;;;;1.43;0.90;;;;;;;8.60;82.51;94609.88;4405193;32;20199;-66
2021/12/24 09:35:57;;;;;;;2.30;1.97;;;;;;;8.47;83.12;94613.34;4421970;32;20275;-66
2021/12/24 09:38:22;;;;;;;0.97;0.97;;;;;;;8.44;83.88;94622.63;4416944;32;20237;-65
2021/12/24 09:40:47;;;;;;;0.80;0.80;;;;;;;8.51;83.23;94606.38;4419653;32;20266;-66
2021/12/24 09:43:13;;;;;;;0.90;0.90;;;;;;;8.57;83.60;94603.31;4411723;32;20231;-66
2021/12/24 09:45:38;;;;;;;2.03;1.07;;;;;;;8.51;84.81;94604.53;4407009;32;20185;-66
2021/12/24 09:48:04;;;;;;;1.00;0.90;;;;;;;8.63;84.31;94604.00;4401919;32;20187;-66
2021/12/24 09:50:29;;;;;;;0.70;0.70;;;;;;;8.55;85.08;94605.47;4413078;32;20188;-66
2021/12/24 09:52:55;;;;;;;1.00;0.90;;;;;;;8.51;85.83;94603.75;4410359;32;20203;-66
2021/12/24 09:55:26;;;;;;;1.00;0.90;;;;;;;8.39;85.60;94598.94;4405961;32;20203;-66
2021/12/24 09:57:52;;;;;;;0.80;0.80;;;;;;;8.38;86.25;94596.59;4414328;32;20283;-66
2021/12/24 10:00:21;;;;;;;1.00;1.00;;;;;;;8.28;87.62;94600.22;4418385;32;20281;-66
2021/12/24 10:02:51;;;;;;;0.80;0.80;;;;;;;8.42;86.79;94598.38;4413730;32;20217;-65
2021/12/24 10:05:27;;;;;;;1.10;0.83;;;;;;;8.34;86.95;94595.63;4417376;32;20292;-65
2021/12/24 10:08:23;;;;;;;0.90;0.90;;;;;;;8.40;87.06;94599.72;4412610;32;20282;-65
2021/12/24 10:10:52;;;;;;;0.80;0.80;;;;;;;8.20;88.66;94596.41;4392571;32;20354;-65
2021/12/24 10:13:27;;;;;;;3.40;1.03;;;;;;;8.20;88.89;94598.28;4410678;32;20339;-65
2021/12/24 10:15:57;;;;;;;0.97;0.97;;;;;;;8.24;88.83;94597.41;4419025;32;20297;-65
2021/12/24 10:18:36;;;;;;;1.10;1.10;;;;;;;8.23;89.16;94598.47;4414113;32;20297;-65
2021/12/24 10:21:08;;;;;;;1.97;1.00;;;;;;;8.29;89.08;94588.59;4413952;32;20373;-65
2021/12/24 10:23:46;;;;;;;1.10;1.00;;;;;;;8.26;89.45;94582.03;4413472;32;20303;-65
2021/12/24 10:26:57;;;;;;;1.20;1.03;;;;;;;8.16;90.29;94584.88;4415749;32;20377;-65
2021/12/24 10:29:37;;;;;;;1.20;1.20;;;;;;;8.13;91.13;94584.66;4405715;32;20294;-65
2021/12/24 10:32:12;;;;;;;0.90;0.90;;;;;;;8.06;92.30;94582.44;4404376;32;20264;-65
2021/12/24 10:34:39;;;;;;;1.10;1.10;;;;;;;8.13;91.99;94584.66;4414641;32;20274;-65
2021/12/24 10:37:14;;;;;;;1.43;1.17;;;;;;;8.15;92.16;94572.72;4419607;32;20270;-65
2021/12/24 10:39:52;;;;;;;1.33;0.90;;;;;;;8.11;92.25;94574.41;4418007;32;20298;-65
2021/12/24 10:42:32;;;;;;;1.87;1.30;;;;;;;8.10;92.33;94580.78;4405784;32;20275;-65
2021/12/24 10:44:59;;;;;;;1.60;1.50;;;;;;;8.17;92.70;94575.88;4422105;32;20287;-65
2021/12/24 10:47:35;;;;;;;0.90;0.90;;;;;;;8.11;92.72;94565.69;4405892;32;20287;-65
2021/12/24 10:55:38;;;;;;;1.80;1.10;;;;;;;8.26;92.10;94565.41;4414673;32;20401;-65
2021/12/24 10:58:11;;;;;;;1.23;1.00;;;;;;;8.19;91.25;94572.94;4409292;32;20274;-65
2021/12/24 11:00:43;;;;;;;1.33;1.23;;;;;;;8.30;91.76;94582.22;4414110;32;20293;-65
2021/12/24 11:03:15;;;;;;;0.77;0.77;;;;;;;8.26;92.29;94574.09;4409758;32;20361;-65
2021/12/24 11:05:43;;;;;;;1.40;1.20;;;;;;;8.20;92.76;94575.28;4412678;32;20279;-65
2021/12/24 11:08:13;;;;;;;1.70;1.30;;;;;;;8.19;93.35;94567.66;4410687;32;20280;-65
2021/12/24 11:10:50;;;;;;;1.10;0.90;;;;;;;8.21;93.20;94571.56;4414837;32;20298;-65
2021/12/24 11:13:21;;;;;;;1.13;1.13;;;;;;;8.21;93.53;94561.00;4416642;32;20286;-65
2021/12/24 11:15:48;;;;;;;1.93;1.20;;;;;;;8.27;93.34;94559.03;4418595;32;20283;-65
2021/12/24 11:18:17;;;;;;;2.60;1.33;;;;;;;8.14;94.19;94550.03;4414855;32;20279;-65
2021/12/24 11:20:45;;;;;;;1.13;1.03;;;;;;;8.12;94.91;94549.53;4412162;32;20318;-65
2021/12/24 11:23:16;;;;;;;0.90;0.90;;;;;;;8.08;94.90;94551.25;4414162;32;20275;-65
2021/12/24 11:25:53;;;;;;;1.23;0.90;;;;;;;8.17;94.07;94538.88;4416439;32;20314;-65
2021/12/24 11:28:19;;;;;;;1.60;1.00;;;;;;;8.23;93.97;94531.62;4421459;32;20432;-65
2021/12/24 11:30:54;;;;;;;2.80;2.30;;;;;;;8.16;94.18;94516.19;4412946;32;20285;-65
2021/12/24 11:33:23;;;;;;;1.70;1.10;;;;;;;8.14;94.44;94518.34;4408000;32;20358;-65
2021/12/24 11:35:50;;;;;;;1.53;1.43;;;;;;;8.22;94.16;94525.56;4415286;32;20287;-65
2021/12/24 11:38:19;;;;;;;4.30;1.00;;;;;;;8.18;93.80;94519.31;4421567;32;20289;-65
2021/12/24 11:40:47;;;;;;;1.13;1.03;;;;;;;8.13;94.20;94527.34;4421241;32;20283;-65
2021/12/24 11:43:13;;;;;;;1.80;1.03;;;;;;;8.10;94.82;94527.97;4421610;32;20367;-65
2021/12/24 11:45:38;;;;;;;1.37;1.03;;;;;;;8.10;94.57;94527.97;4420707;32;20259;-65
2021/12/24 11:48:05;;;;;;;1.10;1.00;;;;;;;7.99;94.88;94531.88;4413016;32;20188;-65
2021/12/24 11:50:31;;;;;;;2.97;1.33;;;;;;;8.03;94.58;94529.44;4407521;32;20241;-65
2021/12/24 11:52:59;;;;;;;0.67;0.67;;;;;;;7.98;94.68;94521.59;4408450;32;20299;-65
2021/12/24 11:55:27;;;;;;;2.57;1.23;;;;;;;7.97;95.02;94520.03;4407447;32;20184;-65
2021/12/24 11:57:59;;;;;;;1.13;1.10;;;;;;;8.09;94.66;94521.13;4405117;32;20283;-65
2021/12/24 12:00:31;;;;;;;4.13;1.10;;;;;;;8.10;94.97;94516.59;4412234;32;20271;-65
2021/12/24 12:02:57;;;;;;;0.80;0.80;;;;;;;8.10;94.76;94522.69;4406388;32;20303;-65
2021/12/24 12:05:28;;;;;;;1.83;1.10;;;;;;;8.03;94.71;94511.72;4406748;32;20279;-65
2021/12/24 12:08:24;;;;;;;1.60;1.10;;;;;;;8.02;95.10;94520.72;4407754;32;20283;-65
2021/12/24 12:10:54;;;;;;;1.90;1.70;;;;;;;8.01;95.29;94515.72;4397970;32;20375;-65
2021/12/24 12:13:40;;;;;;;1.30;1.00;;;;;;;8.08;95.00;94510.84;4417176;32;20392;-65
2021/12/24 12:16:08;;;;;;;1.13;1.03;;;;;;;8.15;95.11;94514.63;4406784;32;20267;-65
2021/12/24 12:18:43;;;;;;;1.37;1.10;;;;;;;8.14;95.00;94507.78;4409420;32;20275;-65
2021/12/24 12:21:38;;;;;;;1.40;1.30;;;;;;;8.07;95.30;94507.41;4404889;32;20354;-65
2021/12/24 12:26:44;;;;;;;2.73;1.27;;;;;;;8.23;94.90;94505.22;4409429;32;20283;-65
2021/12/24 12:29:15;;;;;;;1.27;1.17;;;;;;;8.19;94.95;94498.97;4417470;32;20301;-65
2021/12/24 12:31:41;;;;;;;1.47;1.20;;;;;;;8.14;95.34;94497.19;4409627;32;20283;-65
2021/12/24 12:34:38;;;;;;;1.37;1.13;;;;;;;8.08;95.66;94492.34;4412886;32;20328;-65
2021/12/24 12:37:23;;;;;;;1.63;0.97;;;;;;;8.15;95.36;94493.50;4409596;32;20206;-65
2021/12/24 12:39:52;;;;;;;1.47;0.80;;;;;;;8.31;94.17;94491.31;4405859;32;20272;-65
2021/12/24 12:42:19;;;;;;;1.87;1.47;;;;;;;8.20;94.86;94501.31;4404987;32;20275;-65
2021/12/24 12:44:51;;;;;;;1.13;1.00;;;;;;;8.21;94.80;94486.25;4412295;32;20650;-65
2021/12/24 12:47:24;;;;;;;1.33;1.07;;;;;;;8.19;95.11;94494.47;4406367;32;20309;-65
2021/12/24 12:50:10;;;;;;;1.87;1.17;;;;;;;8.20;94.62;94485.47;4406606;32;20422;-65
2021/12/24 12:52:35;;;;;;;0.80;0.80;;;;;;;8.32;94.19;94492.06;4410303;32;20370;-65
2021/12/24 12:55:02;;;;;;;1.43;1.10;;;;;;;8.23;94.14;94490.16;4409926;32;20310;-65
2021/12/24 12:57:36;;;;;;;2.27;0.90;;;;;;;8.34;94.44;94482.00;4407888;32;20184;-65
2021/12/24 13:00:07;;;;;;;1.60;1.23;;;;;;;8.21;94.33;94484.38;4411200;32;20315;-65
2021/12/24 13:05:51;;;;;;;3.13;0.90;;;;;;;8.31;94.15;94479.97;4405644;32;20313;-65
2021/12/24 13:08:21;;;;;;;0.90;0.90;;;;;;;8.28;94.27;94479.47;4426608;32;20293;-66
2021/12/24 13:10:58;;;;;;;2.20;0.90;;;;;;;8.19;95.32;94478.59;4407339;32;20268;-65
2021/12/24 13:13:25;;;;;;;1.30;1.20;;;;;;;8.21;95.33;94480.94;4404963;32;20295;-65
2021/12/24 13:15:50;;;;;;;1.07;1.07;;;;;;;8.11;95.65;94462.69;4415648;32;20297;-65
2021/12/24 13:18:28;;;;;;;0.87;0.80;;;;;;;8.16;95.93;94473.13;4420966;32;20329;-65
2021/12/24 13:23:42;;;;;;;1.03;0.70;;;;;;;8.28;95.26;94465.47;4391390;32;20328;-65
2021/12/24 13:26:13;;;;;;;0.80;0.80;;;;;;;8.26;95.49;94465.78;4406507;32;20327;-65
2021/12/24 13:29:03;;;;;;;1.47;0.70;;;;;;;8.24;95.68;94467.94;4416170;32;20355;-65
2021/12/24 13:31:30;;;;;;;0.80;0.80;;;;;;;8.22;96.31;94462.16;4412639;32;20350;-65
2021/12/24 13:33:57;;;;;;;1.53;0.80;;;;;;;8.23;95.76;94460.31;4421441;32;20264;-65